Time;durP1;ratioP1;P1;durP2;ratioP2;P2;SDS_P1;SDS_P2;PMS_P1;PMS_P2;Temp;Humidity;BMP_temperature;BMP_pressure;BME280_temperature;BME280_humidity;BME280_pressure;Samples;Min_cycle;Max_cycle;Signal;HPM_P1;HPM_P2
2022/10/05 00:00:54;;;;;;;4.10;1.97;;;;;;;14.57;69.67;101608.50;6257198;28;20692;-74
2022/10/05 00:04:17;;;;;;;5.40;2.60;;;;;;;14.61;69.92;101609.91;6251987;28;20530;-73
2022/10/05 00:07:38;;;;;;;4.03;2.60;;;;;;;14.57;70.12;101613.94;6247978;28;22083;-73
2022/10/05 00:10:59;;;;;;;2.97;2.63;;;;;;;14.61;69.92;101618.06;6263787;28;20322;-73
2022/10/05 00:14:29;;;;;;;6.30;2.67;;;;;;;14.69;69.77;101622.75;6256648;28;20239;-73
2022/10/05 00:17:50;;;;;;;4.13;2.23;;;;;;;14.71;69.75;101626.19;6258813;28;20223;-73
2022/10/05 00:21:20;;;;;;;2.57;2.13;;;;;;;14.65;70.46;101626.75;6251695;28;20228;-74
2022/10/05 00:24:41;;;;;;;2.73;2.30;;;;;;;14.55;71.00;101621.34;6265158;28;21405;-74
2022/10/05 00:28:02;;;;;;;4.83;2.23;;;;;;;14.40;71.51;101612.78;6257576;28;20602;-74
2022/10/05 00:31:31;;;;;;;4.20;2.60;;;;;;;14.32;72.13;101615.34;6255536;28;20322;-74
2022/10/05 00:34:52;;;;;;;3.20;3.00;;;;;;;14.20;73.05;101621.03;6260212;28;20582;-74
2022/10/05 00:38:12;;;;;;;3.13;2.30;;;;;;;14.11;72.96;101613.72;6262978;28;20221;-74
2022/10/05 00:41:48;;;;;;;3.67;2.57;;;;;;;14.06;73.39;101608.72;6254038;28;20236;-74
2022/10/05 00:45:15;;;;;;;5.40;2.13;;;;;;;14.02;73.65;101604.56;6243587;28;20315;-74
2022/10/05 00:48:46;;;;;;;1.90;1.80;;;;;;;14.05;73.27;101595.31;6260553;28;20314;-74
2022/10/05 00:52:19;;;;;;;2.93;2.40;;;;;;;14.07;73.76;101607.75;6267795;28;20220;-74
2022/10/05 00:55:50;;;;;;;4.27;2.83;;;;;;;14.01;73.83;101605.59;6257713;28;20226;-74
2022/10/05 00:59:25;;;;;;;9.40;2.30;;;;;;;14.00;74.01;101589.44;6257840;28;20519;-74
2022/10/05 01:02:55;;;;;;;3.93;2.70;;;;;;;13.95;74.36;101589.88;6252868;28;20232;-73
2022/10/05 01:06:25;;;;;;;2.60;2.23;;;;;;;13.97;74.48;101587.03;6266264;28;20236;-74
2022/10/05 01:09:56;;;;;;;4.00;2.50;;;;;;;13.91;74.47;101569.47;6254679;28;21087;-74
2022/10/05 01:13:27;;;;;;;5.73;2.70;;;;;;;13.94;74.55;101566.47;6256978;28;20560;-74
2022/10/05 01:16:54;;;;;;;4.80;2.43;;;;;;;13.95;74.42;101564.63;6256805;28;20228;-73
2022/10/05 01:20:34;;;;;;;3.63;3.33;;;;;;;13.99;74.42;101575.06;6268885;28;20225;-74
2022/10/05 01:24:28;;;;;;;3.87;2.37;;;;;;;14.01;74.11;101566.78;6260122;28;20228;-75
2022/10/05 01:28:00;;;;;;;6.03;3.03;;;;;;;13.90;74.62;101575.03;6264406;28;20224;-74
2022/10/05 01:31:28;;;;;;;5.57;2.93;;;;;;;13.96;74.54;101569.03;6251080;28;20223;-73
2022/10/05 01:34:57;;;;;;;5.60;3.77;;;;;;;13.93;74.38;101570.19;6253889;28;20231;-75
2022/10/05 01:38:29;;;;;;;6.37;3.07;;;;;;;14.00;74.10;101565.03;6256929;28;20769;-74
2022/10/05 01:42:01;;;;;;;4.50;3.47;;;;;;;13.93;74.29;101567.50;6261529;28;20224;-74
2022/10/05 01:45:31;;;;;;;8.87;3.17;;;;;;;13.82;74.54;101537.78;6262851;28;20259;-74
2022/10/05 01:49:03;;;;;;;4.70;3.00;;;;;;;13.86;74.30;101533.78;6260151;28;20231;-73
2022/10/05 01:52:35;;;;;;;3.57;2.43;;;;;;;13.76;74.75;101529.38;6260976;28;20231;-73
2022/10/05 01:56:05;;;;;;;3.43;3.13;;;;;;;13.76;74.58;101532.06;6263248;28;20669;-73
2022/10/05 01:59:40;;;;;;;3.23;2.97;;;;;;;13.61;75.07;101540.63;6273962;28;20322;-73
2022/10/05 02:03:08;;;;;;;5.03;2.33;;;;;;;13.58;75.50;101542.72;6264976;28;20234;-73
2022/10/05 02:06:32;;;;;;;5.20;2.30;;;;;;;13.69;75.33;101550.75;6269289;28;20227;-73
2022/10/05 02:09:56;;;;;;;4.80;3.90;;;;;;;13.68;75.09;101540.91;6258487;28;20526;-73
2022/10/05 02:13:22;;;;;;;3.93;2.70;;;;;;;13.64;75.50;101536.78;6266728;28;20233;-73
2022/10/05 02:16:45;;;;;;;4.07;2.97;;;;;;;13.66;75.29;101523.94;6261261;28;20223;-73
2022/10/05 02:20:14;;;;;;;4.30;2.80;;;;;;;13.75;75.09;101535.78;6259846;28;20965;-73
2022/10/05 02:23:40;;;;;;;4.17;2.77;;;;;;;13.70;75.08;101533.50;6261807;28;20232;-73
2022/10/05 02:27:04;;;;;;;7.00;2.33;;;;;;;13.62;75.47;101533.34;6268896;28;20250;-74
2022/10/05 02:30:27;;;;;;;7.57;2.67;;;;;;;13.67;75.87;101525.63;6254526;28;20678;-73
2022/10/05 02:33:48;;;;;;;4.43;2.43;;;;;;;13.75;75.26;101533.91;6257993;28;20231;-73
2022/10/05 02:37:24;;;;;;;3.27;2.20;;;;;;;13.73;75.57;101530.50;6274760;28;20223;-73
2022/10/05 02:40:55;;;;;;;4.30;3.27;;;;;;;13.79;75.38;101534.50;6249049;28;20932;-73
2022/10/05 02:44:26;;;;;;;3.10;2.23;;;;;;;13.82;75.09;101532.38;6261860;28;20227;-73
2022/10/05 02:47:54;;;;;;;4.70;2.67;;;;;;;13.87;75.19;101519.22;6260086;28;20306;-74
2022/10/05 02:51:22;;;;;;;7.27;3.37;;;;;;;13.84;75.22;101516.81;6269549;28;20227;-73
2022/10/05 02:54:54;;;;;;;4.10;2.67;;;;;;;13.77;75.51;101509.41;6274110;28;20326;-73
2022/10/05 02:58:21;;;;;;;3.00;2.30;;;;;;;13.76;75.82;101500.41;6263189;28;20291;-73
2022/10/05 03:01:48;;;;;;;3.43;2.60;;;;;;;13.77;75.67;101493.16;6256198;28;20228;-74
2022/10/05 03:05:18;;;;;;;7.77;2.87;;;;;;;13.84;75.46;101495.13;6260947;28;20228;-74
2022/10/05 03:08:46;;;;;;;3.83;2.93;;;;;;;13.80;75.66;101482.88;6262442;28;20585;-74
2022/10/05 03:12:20;;;;;;;4.57;2.97;;;;;;;13.86;75.38;101485.00;6266281;28;20291;-73
2022/10/05 03:16:06;;;;;;;2.60;2.27;;;;;;;13.88;75.20;101483.00;6250938;28;20640;-73
2022/10/05 03:19:49;;;;;;;7.53;2.67;;;;;;;13.74;75.95;101482.56;6255560;28;20240;-73
2022/10/05 03:23:19;;;;;;;4.47;4.07;;;;;;;13.70;76.29;101490.16;6265446;28;20231;-73
2022/10/05 03:26:48;;;;;;;2.93;2.73;;;;;;;13.66;76.62;101483.31;6275466;28;20623;-73
2022/10/05 03:30:15;;;;;;;2.93;2.63;;;;;;;13.64;76.58;101479.88;6254959;28;20235;-74
2022/10/05 03:33:42;;;;;;;4.97;2.80;;;;;;;13.79;76.35;101478.44;6257194;28;20529;-74
2022/10/05 03:37:09;;;;;;;3.83;2.53;;;;;;;13.77;76.32;101471.47;6254447;28;20251;-73
2022/10/05 03:40:36;;;;;;;3.53;2.30;;;;;;;13.78;76.34;101479.44;6256226;28;20231;-73
2022/10/05 03:44:29;;;;;;;3.83;3.27;;;;;;;13.77;76.36;101474.19;6260957;28;20346;-73
2022/10/05 03:48:01;;;;;;;3.33;3.03;;;;;;;13.71;76.81;101464.75;6260443;28;20224;-73
2022/10/05 03:51:29;;;;;;;3.73;2.97;;;;;;;13.71;77.09;101461.16;6257018;28;20287;-73
2022/10/05 03:54:54;;;;;;;3.07;2.87;;;;;;;13.84;76.43;101468.03;6257196;28;20227;-73
2022/10/05 03:58:22;;;;;;;5.60;3.70;;;;;;;13.87;76.31;101464.19;6267799;28;20228;-73
2022/10/05 04:01:49;;;;;;;3.93;3.37;;;;;;;13.84;76.61;101459.03;6253692;28;20263;-73
2022/10/05 04:05:16;;;;;;;4.37;2.63;;;;;;;13.70;77.06;101446.78;6266550;28;20224;-73
2022/10/05 04:08:44;;;;;;;3.40;2.67;;;;;;;13.77;76.94;101452.50;6260632;28;21513;-73
2022/10/05 04:12:13;;;;;;;3.70;3.07;;;;;;;13.69;77.48;101452.31;6265915;28;20311;-74
2022/10/05 04:15:41;;;;;;;4.70;3.80;;;;;;;13.63;77.74;101451.06;6256474;28;20223;-74
2022/10/05 04:19:10;;;;;;;3.77;3.47;;;;;;;13.64;77.82;101460.91;6256859;28;20240;-72
2022/10/05 04:22:37;;;;;;;5.23;3.43;;;;;;;13.67;77.86;101457.91;6259105;28;20231;-74
2022/10/05 04:26:04;;;;;;;5.37;3.33;;;;;;;13.68;77.85;101456.91;6256854;28;20231;-74
2022/10/05 04:29:33;;;;;;;5.77;3.23;;;;;;;13.74;77.65;101458.19;6271393;28;20231;-72
2022/10/05 04:32:57;;;;;;;7.30;3.53;;;;;;;13.75;77.64;101465.34;6262839;28;20230;-73
2022/10/05 04:36:27;;;;;;;4.70;3.80;;;;;;;13.62;78.36;101461.03;6258273;28;20257;-73
2022/10/05 04:40:03;;;;;;;5.47;2.93;;;;;;;13.61;78.09;101456.63;6256099;28;20228;-74
2022/10/05 04:43:36;;;;;;;3.63;3.33;;;;;;;13.69;78.40;101455.03;6255703;28;20322;-73
2022/10/05 04:47:13;;;;;;;3.80;3.03;;;;;;;13.63;78.20;101451.91;6254897;28;20248;-74
2022/10/05 04:50:49;;;;;;;4.20;2.17;;;;;;;13.71;78.07;101437.66;6248616;28;20243;-73
2022/10/05 04:54:21;;;;;;;5.93;2.93;;;;;;;13.69;78.37;101446.91;6256952;28;20228;-74
2022/10/05 04:57:52;;;;;;;4.13;3.03;;;;;;;13.69;78.24;101446.91;6257952;28;20235;-72
2022/10/05 05:01:29;;;;;;;6.53;2.73;;;;;;;13.62;78.61;101439.34;6237046;28;20231;-73
2022/10/05 05:05:14;;;;;;;4.30;3.53;;;;;;;13.75;78.49;101433.66;6242675;28;21103;-74
2022/10/05 05:08:54;;;;;;;4.83;3.20;;;;;;;13.74;78.41;101444.63;6259122;28;20224;-73
2022/10/05 05:12:23;;;;;;;3.97;3.57;;;;;;;13.68;78.76;101446.06;6241226;28;20239;-72
2022/10/05 05:15:51;;;;;;;5.27;4.50;;;;;;;13.62;79.28;101442.06;6238105;28;20318;-74
2022/10/05 05:19:21;;;;;;;3.57;3.17;;;;;;;13.66;79.12;101450.78;6261993;28;20239;-73
2022/10/05 05:22:52;;;;;;;4.77;3.97;;;;;;;13.72;79.23;101444.78;6267543;28;20227;-74
2022/10/05 05:26:21;;;;;;;4.80;3.90;;;;;;;13.71;79.04;101450.34;6259893;28;20232;-73
2022/10/05 05:29:54;;;;;;;3.87;3.33;;;;;;;13.69;79.35;101434.22;6259535;28;20598;-75
2022/10/05 05:33:21;;;;;;;3.87;3.27;;;;;;;13.70;79.45;101441.38;6264266;28;20919;-74
2022/10/05 05:36:55;;;;;;;4.47;3.17;;;;;;;13.66;79.57;101433.66;6270091;28;20231;-74
2022/10/05 05:40:23;;;;;;;8.33;3.67;;;;;;;13.62;79.69;101427.69;6258159;28;20772;-75
2022/10/05 05:43:55;;;;;;;4.83;3.37;;;;;;;13.79;79.35;101431.53;6263591;28;20339;-74
2022/10/05 05:47:20;;;;;;;4.40;4.00;;;;;;;13.77;79.68;101430.81;6250070;28;20224;-73
2022/10/05 05:50:55;;;;;;;5.83;4.07;;;;;;;13.75;79.50;101425.53;6261111;28;20236;-75
2022/10/05 05:54:27;;;;;;;4.93;3.93;;;;;;;13.77;79.68;101428.13;6251947;28;20224;-75
2022/10/05 05:57:54;;;;;;;4.83;3.57;;;;;;;13.78;79.70;101422.53;6258229;28;20227;-75
2022/10/05 06:01:23;;;;;;;4.80;4.23;;;;;;;13.80;79.70;101428.66;6247852;28;20235;-74
2022/10/05 06:04:49;;;;;;;5.17;3.87;;;;;;;13.86;79.40;101430.81;6244515;28;20243;-74
2022/10/05 06:08:18;;;;;;;5.20;4.33;;;;;;;13.85;79.75;101426.38;6246625;28;20228;-73
2022/10/05 06:11:47;;;;;;;9.53;3.77;;;;;;;13.84;79.81;101421.97;6263064;28;20269;-74
2022/10/05 06:15:21;;;;;;;5.03;3.70;;;;;;;13.88;79.73;101409.81;6261680;28;20235;-75
2022/10/05 06:18:46;;;;;;;3.33;3.03;;;;;;;13.81;80.19;101410.56;6251559;28;20228;-75
2022/10/05 06:22:15;;;;;;;5.50;3.57;;;;;;;13.82;80.12;101418.53;6234934;28;20248;-73
2022/10/05 06:25:55;;;;;;;6.23;3.70;;;;;;;13.88;80.05;101422.53;6253103;28;20243;-75
2022/10/05 06:29:22;;;;;;;5.47;3.27;;;;;;;14.00;79.68;101430.34;6274772;28;20220;-74
2022/10/05 06:33:04;;;;;;;6.43;4.97;;;;;;;13.95;79.74;101424.53;6255449;28;20228;-75
2022/10/05 06:36:38;;;;;;;5.97;4.77;;;;;;;13.95;79.80;101432.66;6265007;28;20220;-74
2022/10/05 06:40:10;;;;;;;6.37;4.50;;;;;;;14.10;79.50;101423.06;6279991;28;20243;-74
2022/10/05 06:43:46;;;;;;;3.67;3.00;;;;;;;14.12;79.32;101444.63;6261348;28;20243;-74
2022/10/05 06:47:37;;;;;;;4.60;3.77;;;;;;;14.09;79.65;101429.50;6261474;28;20247;-74
2022/10/05 06:51:26;;;;;;;2.67;2.43;;;;;;;14.07;79.61;101427.91;6259753;28;20232;-74
2022/10/05 06:55:15;;;;;;;4.13;3.73;;;;;;;14.04;79.64;101426.34;6276071;28;20499;-74
2022/10/05 06:58:59;;;;;;;7.57;4.70;;;;;;;13.98;79.96;101426.94;6263712;28;20228;-74
2022/10/05 07:02:25;;;;;;;6.57;4.63;;;;;;;14.02;80.39;101417.50;6252267;28;20830;-75
2022/10/05 07:05:54;;;;;;;4.90;4.43;;;;;;;14.13;79.48;101428.19;6261138;28;20243;-76
2022/10/05 07:09:30;;;;;;;4.17;3.73;;;;;;;14.06;79.57;101434.38;6252209;28;20232;-74
2022/10/05 07:13:05;;;;;;;6.97;3.50;;;;;;;14.05;79.74;101414.53;6260226;28;20219;-74
2022/10/05 07:16:38;;;;;;;6.80;3.77;;;;;;;14.09;79.62;101424.06;6255697;28;20223;-74
2022/10/05 07:20:08;;;;;;;6.50;4.67;;;;;;;14.29;79.49;101414.06;6257480;28;20604;-74
2022/10/05 07:23:43;;;;;;;3.77;3.47;;;;;;;14.21;79.43;101409.34;6258477;28;20532;-75
2022/10/05 07:27:13;;;;;;;6.03;4.30;;;;;;;14.38;79.10;101416.75;6277166;28;20228;-74
2022/10/05 07:30:42;;;;;;;9.00;4.33;;;;;;;14.40;78.96;101419.31;6254888;28;20293;-73
2022/10/05 07:34:09;;;;;;;7.00;5.07;;;;;;;14.38;79.13;101419.47;6259392;28;20231;-73
2022/10/05 07:37:56;;;;;;;4.50;3.63;;;;;;;14.47;79.04;101417.72;6263111;28;20614;-74
2022/10/05 07:41:31;;;;;;;5.57;4.40;;;;;;;14.53;78.91;101416.28;6249811;28;20223;-74
2022/10/05 07:44:58;;;;;;;7.47;4.20;;;;;;;14.56;78.66;101413.28;6263463;28;20228;-74
2022/10/05 07:48:22;;;;;;;3.90;3.33;;;;;;;14.63;78.34;101411.66;6252790;28;20227;-73
2022/10/05 07:51:48;;;;;;;5.80;3.00;;;;;;;14.65;78.79;101417.78;6258185;28;20277;-74
2022/10/05 07:55:18;;;;;;;6.97;4.13;;;;;;;14.72;78.47;101413.50;6260007;28;20228;-73
2022/10/05 07:58:46;;;;;;;3.97;3.57;;;;;;;14.67;78.44;101423.94;6263466;28;20235;-74
2022/10/05 08:02:18;;;;;;;6.33;3.03;;;;;;;14.78;78.33;101421.03;6255982;28;20358;-74
2022/10/05 08:05:42;;;;;;;3.73;3.33;;;;;;;14.77;77.99;101422.88;6247261;28;21134;-76
2022/10/05 08:09:12;;;;;;;5.00;3.40;;;;;;;14.72;78.71;101429.78;6260271;28;20227;-73
2022/10/05 08:12:41;;;;;;;3.27;2.50;;;;;;;14.75;78.74;101433.03;6265368;28;20227;-74
2022/10/05 08:16:11;;;;;;;4.83;3.00;;;;;;;14.85;78.58;101435.72;6258120;28;20232;-75
2022/10/05 08:19:39;;;;;;;5.77;3.07;;;;;;;14.93;77.79;101428.53;6260876;28;20338;-75
2022/10/05 08:23:05;;;;;;;5.07;3.20;;;;;;;14.91;77.81;101435.13;6260198;28;20226;-74
2022/10/05 08:26:37;;;;;;;5.87;2.90;;;;;;;14.96;77.73;101435.50;6259199;28;20216;-74
2022/10/05 08:30:02;;;;;;;3.23;2.63;;;;;;;15.04;77.88;101430.19;6258759;28;20312;-74
2022/10/05 08:33:27;;;;;;;10.00;3.90;;;;;;;15.02;77.38;101429.47;6263780;28;20228;-74
2022/10/05 08:36:56;;;;;;;3.80;3.00;;;;;;;15.08;77.27;101437.03;6255551;28;20232;-76
2022/10/05 08:40:47;;;;;;;5.10;4.03;;;;;;;15.23;77.45;101430.06;6252540;28;20251;-72
2022/10/05 08:44:38;;;;;;;4.93;3.50;;;;;;;15.27;76.84;101436.91;6262943;28;20648;-74
2022/10/05 08:48:20;;;;;;;6.27;4.17;;;;;;;15.26;76.42;101432.50;6251621;28;20236;-74
2022/10/05 08:52:03;;;;;;;6.40;3.43;;;;;;;15.25;76.08;101430.75;6224750;28;20224;-74
2022/10/05 08:55:42;;;;;;;6.37;3.70;;;;;;;15.48;75.38;101426.63;6237470;28;20237;-74
2022/10/05 08:59:33;;;;;;;4.17;3.00;;;;;;;15.61;74.72;101440.72;6234366;28;20236;-74
2022/10/05 09:03:21;;;;;;;3.13;2.70;;;;;;;15.27;75.49;101423.31;6261794;28;20235;-73
2022/10/05 09:07:20;;;;;;;5.87;3.17;;;;;;;15.13;76.43;101421.97;6254077;28;20579;-74
2022/10/05 09:11:01;;;;;;;3.17;2.30;;;;;;;15.30;75.50;101438.47;6193254;28;20239;-74
2022/10/05 09:14:31;;;;;;;4.73;3.20;;;;;;;15.45;75.14;101431.53;6254065;28;20608;-73
2022/10/05 09:18:20;;;;;;;5.27;3.03;;;;;;;15.47;74.38;101418.66;6262047;28;20219;-72
2022/10/05 09:21:50;;;;;;;4.50;2.50;;;;;;;15.52;74.30;101421.75;6258156;28;20227;-74
2022/10/05 09:25:23;;;;;;;2.40;2.17;;;;;;;15.70;74.14;101414.47;6256154;28;20250;-80
2022/10/05 09:28:58;;;;;;;6.63;3.23;;;;;;;15.69;73.46;101418.16;6259755;28;20652;-78
2022/10/05 09:32:40;;;;;;;4.27;3.67;;;;;;;15.62;73.15;101417.97;6251361;28;20239;-74
2022/10/05 09:36:49;;;;;;;4.57;3.57;;;;;;;15.67;72.48;101417.47;6261209;28;20319;-75
2022/10/05 09:40:49;;;;;;;6.10;4.77;;;;;;;15.66;72.25;101405.78;6199743;28;20239;-77
2022/10/05 09:44:48;;;;;;;5.00;3.10;;;;;;;15.93;71.22;101407.53;6263328;28;20231;-78
2022/10/05 09:48:41;;;;;;;5.47;3.07;;;;;;;15.96;71.12;101397.19;6261953;28;20224;-77
2022/10/05 09:52:13;;;;;;;6.93;4.10;;;;;;;15.90;70.52;101405.97;6260167;28;21185;-80
2022/10/05 09:55:58;;;;;;;4.17;3.63;;;;;;;15.84;70.79;101405.75;6257422;28;20240;-75
2022/10/05 09:59:48;;;;;;;5.13;3.13;;;;;;;15.75;71.47;101399.38;6257941;28;20223;-78
2022/10/05 10:03:41;;;;;;;6.10;3.53;;;;;;;15.80;71.91;101396.19;6263726;28;20240;-77
2022/10/05 10:07:25;;;;;;;5.67;3.13;;;;;;;15.89;71.19;101401.56;6261336;28;20272;-78
2022/10/05 10:11:01;;;;;;;4.30;3.40;;;;;;;15.69;72.08;101404.56;6265040;28;20314;-78
2022/10/05 10:14:52;;;;;;;5.00;2.83;;;;;;;15.73;72.31;101393.25;6259846;28;20228;-80
2022/10/05 10:18:27;;;;;;;5.53;3.70;;;;;;;15.74;72.19;101394.97;6261842;28;20630;-81
2022/10/05 10:22:26;;;;;;;5.57;3.90;;;;;;;15.86;71.64;101380.09;6261316;28;20231;-74
2022/10/05 10:26:21;;;;;;;6.37;4.17;;;;;;;15.85;71.53;101378.38;6257255;28;20644;-74
2022/10/05 10:29:57;;;;;;;3.87;3.57;;;;;;;15.82;71.50;101372.41;6258238;28;20232;-77
2022/10/05 10:33:53;;;;;;;3.90;2.70;;;;;;;15.83;71.71;101388.56;6250513;28;20231;-78
2022/10/05 10:37:35;;;;;;;7.60;3.00;;;;;;;15.84;71.76;101382.13;6259943;28;20227;-75
2022/10/05 10:41:45;;;;;;;6.70;2.80;;;;;;;15.77;71.56;101389.19;6263121;28;20219;-73
2022/10/05 10:45:19;;;;;;;2.93;2.30;;;;;;;15.71;71.70;101394.41;6255942;28;20317;-75
2022/10/05 10:48:57;;;;;;;3.20;2.90;;;;;;;15.68;72.05;101392.00;6259942;28;20232;-74
2022/10/05 10:52:33;;;;;;;2.70;2.50;;;;;;;15.86;71.35;101382.81;6263360;28;20641;-72
2022/10/05 10:56:07;;;;;;;3.63;3.30;;;;;;;15.65;71.79;101379.59;6259790;28;20314;-72
2022/10/05 11:00:02;;;;;;;5.00;2.97;;;;;;;15.76;71.75;101382.06;6262156;28;20224;-74
2022/10/05 11:04:01;;;;;;;3.87;3.00;;;;;;;15.81;70.92;101377.00;6268527;28;20231;-72
2022/10/05 11:07:45;;;;;;;8.00;3.23;;;;;;;15.69;71.00;101397.28;6253253;28;20231;-73
2022/10/05 11:11:35;;;;;;;3.77;3.33;;;;;;;15.71;71.27;101392.53;6261957;28;20416;-71
2022/10/05 11:15:28;;;;;;;3.17;2.97;;;;;;;15.71;71.27;101370.78;6259488;28;20232;-73
2022/10/05 11:19:11;;;;;;;5.03;3.23;;;;;;;15.62;71.61;101374.47;6257810;28;20223;-74
2022/10/05 11:22:57;;;;;;;3.30;3.10;;;;;;;15.68;71.00;101376.56;6260878;28;20578;-76
2022/10/05 11:26:45;;;;;;;3.23;2.47;;;;;;;15.81;70.96;101371.56;6243316;28;20610;-72
2022/10/05 11:30:22;;;;;;;3.63;3.33;;;;;;;15.86;70.93;101362.94;6263728;28;20240;-71
2022/10/05 11:34:18;;;;;;;3.43;2.63;;;;;;;15.84;71.00;101381.25;6260424;28;20235;-73
2022/10/05 11:38:33;;;;;;;4.30;2.63;;;;;;;16.05;70.40;101354.56;6263094;28;20251;-72
2022/10/05 11:42:39;;;;;;;5.67;2.80;;;;;;;16.00;70.46;101355.06;6168936;28;20281;-73
2022/10/05 11:46:10;;;;;;;3.57;3.27;;;;;;;15.94;70.91;101352.97;6259157;28;20244;-72
2022/10/05 11:49:39;;;;;;;2.90;2.73;;;;;;;15.86;70.74;101341.19;6252364;28;20228;-75
2022/10/05 11:53:06;;;;;;;2.30;2.10;;;;;;;15.99;70.49;101341.63;6270295;28;20262;-73
2022/10/05 11:56:34;;;;;;;2.83;2.63;;;;;;;15.86;70.99;101333.88;6256774;28;20232;-72
2022/10/05 12:00:05;;;;;;;3.27;2.00;;;;;;;15.95;69.76;101319.34;6253122;28;20235;-71
2022/10/05 12:03:43;;;;;;;2.73;2.17;;;;;;;15.94;69.78;101328.50;6259707;28;20232;-75
2022/10/05 12:07:18;;;;;;;3.40;1.73;;;;;;;15.93;69.80;101324.09;6261778;28;20843;-73
2022/10/05 12:10:48;;;;;;;2.03;1.93;;;;;;;16.02;69.48;101311.38;6259203;28;20223;-72
2022/10/05 12:14:19;;;;;;;3.23;2.60;;;;;;;16.13;69.07;101302.06;6262190;28;20231;-72
2022/10/05 12:17:50;;;;;;;6.23;2.03;;;;;;;16.22;68.37;101309.28;6263941;28;20317;-72
2022/10/05 12:21:20;;;;;;;3.03;2.10;;;;;;;16.39;67.87;101309.22;6263597;28;20704;-76
2022/10/05 12:25:02;;;;;;;2.60;1.93;;;;;;;16.24;67.50;101288.19;6251657;28;20231;-72
2022/10/05 12:28:32;;;;;;;2.43;2.10;;;;;;;16.38;67.48;101291.16;6263777;28;20243;-77
2022/10/05 12:32:01;;;;;;;1.83;1.73;;;;;;;16.72;66.55;101281.13;6258361;28;20227;-76
2022/10/05 12:35:30;;;;;;;1.50;1.40;;;;;;;16.60;66.76;101292.50;6258102;28;20555;-77
2022/10/05 12:38:56;;;;;;;1.90;1.70;;;;;;;16.38;67.23;101288.44;6263255;28;20219;-76
2022/10/05 12:42:27;;;;;;;6.80;1.50;;;;;;;16.50;66.98;101273.53;6255218;28;20215;-77
2022/10/05 12:46:03;;;;;;;2.27;2.07;;;;;;;16.65;66.70;101271.91;6257583;28;20223;-76
2022/10/05 12:49:45;;;;;;;2.37;2.17;;;;;;;16.58;66.63;101275.47;6241132;28;21840;-74
2022/10/05 12:53:23;;;;;;;1.90;1.80;;;;;;;17.18;64.93;101268.78;6265851;28;20239;-72
2022/10/05 12:56:51;;;;;;;3.23;1.53;;;;;;;17.10;65.77;101255.16;6257608;28;20246;-72
2022/10/05 13:00:15;;;;;;;1.97;1.80;;;;;;;16.77;66.43;101251.50;6258864;28;20227;-73
2022/10/05 13:03:39;;;;;;;2.33;2.13;;;;;;;16.90;66.35;101250.19;6262528;28;20227;-73
2022/10/05 13:07:12;;;;;;;1.67;1.57;;;;;;;17.05;66.13;101257.53;6255807;28;20506;-77
2022/10/05 13:10:39;;;;;;;2.40;2.20;;;;;;;17.44;64.98;101250.38;6260966;28;20227;-75
2022/10/05 13:14:13;;;;;;;3.40;2.20;;;;;;;17.70;64.44;101235.72;6254257;28;20625;-77
2022/10/05 13:17:39;;;;;;;3.33;1.93;;;;;;;17.58;64.46;101237.13;6255599;28;20231;-75
2022/10/05 13:21:06;;;;;;;2.67;2.30;;;;;;;17.47;64.95;101238.28;6258790;28;20243;-76
2022/10/05 13:24:31;;;;;;;2.30;1.80;;;;;;;17.54;65.16;101231.16;6260540;28;20251;-75
2022/10/05 13:28:08;;;;;;;3.47;1.83;;;;;;;17.79;64.49;101221.06;6261648;28;20231;-75
2022/10/05 13:31:34;;;;;;;3.92;3.45;;;;;;;17.96;63.77;101234.44;6251680;28;20251;-76
2022/10/05 13:35:04;;;;;;;2.60;1.92;;;;;;;17.50;65.27;101229.81;6251295;28;20318;-76
2022/10/05 13:38:38;;;;;;;2.88;2.60;;;;;;;17.27;66.21;101221.41;6263693;28;22731;-73
2022/10/05 13:42:06;;;;;;;1.70;1.60;;;;;;;17.38;66.09;101225.66;6263225;28;20841;-74
2022/10/05 13:45:36;;;;;;;2.50;2.30;;;;;;;17.31;66.60;101224.66;6264523;28;20705;-74
2022/10/05 13:49:08;;;;;;;5.60;2.13;;;;;;;17.20;66.50;101227.72;6262688;28;20609;-74
2022/10/05 13:52:42;;;;;;;2.10;1.90;;;;;;;17.32;66.58;101238.13;6470668;23;20234;-74
2022/10/05 13:56:12;;;;;;;2.00;1.73;;;;;;;17.26;66.63;101224.31;6182320;28;20584;-76
2022/10/05 13:59:41;;;;;;;1.90;1.73;;;;;;;17.42;66.57;101216.97;6185389;28;20237;-73
2022/10/05 14:03:26;;;;;;;1.80;1.70;;;;;;;17.49;66.13;101214.41;6184734;28;20253;-78
2022/10/05 14:06:48;;;;;;;3.63;1.50;;;;;;;17.53;66.24;101208.50;6180199;28;20309;-77
2022/10/05 14:10:13;;;;;;;2.13;1.93;;;;;;;17.55;66.36;101208.31;6190179;28;20239;-76
2022/10/05 14:13:46;;;;;;;2.90;2.70;;;;;;;17.51;66.74;101205.09;6188007;28;20697;-76
2022/10/05 14:17:15;;;;;;;2.17;1.73;;;;;;;17.53;66.62;101202.19;6187470;28;20604;-79
2022/10/05 14:20:37;;;;;;;3.90;2.37;;;;;;;17.53;66.84;101216.66;6188980;28;20217;-79
2022/10/05 14:24:19;;;;;;;2.33;2.13;;;;;;;17.50;67.08;101210.72;6183018;28;20229;-78
2022/10/05 14:27:50;;;;;;;2.50;2.30;;;;;;;17.46;67.04;101218.34;6190625;28;20242;-79
2022/10/05 14:31:14;;;;;;;2.73;1.57;;;;;;;17.43;67.72;101218.69;6191228;28;20225;-72
2022/10/05 14:34:38;;;;;;;2.03;1.47;;;;;;;17.40;67.77;101220.91;6189291;28;20229;-74
2022/10/05 14:38:07;;;;;;;1.90;1.50;;;;;;;17.42;67.80;101216.97;6187007;28;20242;-74
2022/10/05 14:41:30;;;;;;;3.10;2.20;;;;;;;17.45;67.76;101222.09;6182474;28;20233;-73
2022/10/05 14:45:00;;;;;;;2.63;1.70;;;;;;;17.46;68.01;101218.34;6150744;28;21598;-75
2022/10/05 14:48:21;;;;;;;4.07;1.90;;;;;;;17.46;68.06;101207.44;6181098;28;20455;-73
2022/10/05 14:51:42;;;;;;;2.30;2.10;;;;;;;17.47;67.92;101194.66;6184891;28;20238;-77
2022/10/05 14:55:16;;;;;;;3.07;1.97;;;;;;;17.51;68.29;101194.19;6181324;28;20230;-77
2022/10/05 14:59:04;;;;;;;1.50;1.40;;;;;;;17.50;68.04;101197.09;6181319;28;20233;-76
2022/10/05 15:02:50;;;;;;;1.80;1.70;;;;;;;17.50;68.29;101200.66;6180946;28;20222;-77
2022/10/05 15:06:18;;;;;;;2.17;2.07;;;;;;;17.51;68.24;101180.56;6182480;28;20226;-79
2022/10/05 15:09:53;;;;;;;1.50;1.40;;;;;;;17.52;68.32;101195.88;6172172;28;20233;-79
2022/10/05 15:13:19;;;;;;;3.72;1.67;;;;;;;17.50;68.70;101191.63;6179259;28;20302;-76
2022/10/05 15:16:40;;;;;;;3.95;2.20;;;;;;;17.51;68.78;101187.88;6182795;28;20257;-76
2022/10/05 15:20:09;;;;;;;1.87;1.60;;;;;;;17.50;68.92;101195.19;6184207;28;20520;-78
2022/10/05 15:23:38;;;;;;;1.60;1.50;;;;;;;17.50;68.67;101186.19;6180497;28;20254;-78
2022/10/05 15:27:02;;;;;;;1.80;1.70;;;;;;;17.53;68.57;101178.50;6173809;28;20233;-77
2022/10/05 15:30:25;;;;;;;1.67;1.57;;;;;;;17.54;68.54;101172.00;6181146;28;20811;-74
2022/10/05 15:33:58;;;;;;;3.07;1.53;;;;;;;17.53;68.83;101164.00;6183032;28;20270;-73
2022/10/05 15:37:25;;;;;;;1.60;1.50;;;;;;;17.53;68.73;101162.13;6181887;28;20225;-73
2022/10/05 15:40:53;;;;;;;2.70;2.23;;;;;;;17.54;68.71;101150.19;6180624;28;20604;-72
2022/10/05 15:44:24;;;;;;;2.90;1.60;;;;;;;17.52;68.67;101138.63;6176301;28;20308;-73
2022/10/05 15:47:58;;;;;;;1.77;1.63;;;;;;;17.55;68.79;101145.59;6165268;28;21194;-72
2022/10/05 15:51:35;;;;;;;4.13;2.15;;;;;;;17.56;68.41;101130.97;6177337;28;20237;-73
2022/10/05 15:55:26;;;;;;;1.70;1.60;;;;;;;17.55;68.54;101134.69;6180327;28;20820;-73
2022/10/05 15:58:54;;;;;;;3.73;1.50;;;;;;;17.52;68.66;101138.63;6183896;28;20830;-72
2022/10/05 16:02:20;;;;;;;3.97;2.43;;;;;;;17.52;68.36;101141.34;6180844;28;20776;-73
2022/10/05 16:09:39;;;;;;;2.03;1.87;;;;;;;17.50;68.78;101162.47;6182306;28;20250;-73
2022/10/05 16:13:18;;;;;;;1.50;1.40;;;;;;;17.49;68.52;101168.97;6189403;28;20233;-74
2022/10/05 16:16:49;;;;;;;1.45;1.35;;;;;;;17.49;68.23;101152.59;6187409;28;20269;-73
2022/10/05 16:20:24;;;;;;;2.43;1.27;;;;;;;17.42;68.63;101153.44;6181507;28;20265;-73
2022/10/05 16:24:03;;;;;;;1.50;1.40;;;;;;;17.30;69.21;101154.81;6170203;28;20229;-74
2022/10/05 16:27:36;;;;;;;2.03;1.90;;;;;;;17.24;69.43;101156.38;6184662;28;20277;-73
2022/10/05 16:31:02;;;;;;;3.40;2.00;;;;;;;17.14;70.01;101143.94;6178009;28;20218;-73
2022/10/05 16:34:37;;;;;;;2.00;1.80;;;;;;;17.12;70.02;101156.91;6187423;28;20253;-75